createdAt,value
2023-01-09T00:01:43.246Z,95933.00
2023-01-09T00:04:12.221Z,95924.00
2023-01-09T00:06:43.247Z,95937.00
2023-01-09T00:09:11.745Z,95924.00
2023-01-09T00:11:41.523Z,95911.00
2023-01-09T00:14:11.035Z,95918.00
2023-01-09T00:16:39.381Z,95911.00
2023-01-09T00:19:07.507Z,95902.00
2023-01-09T00:21:36.504Z,95906.00
2023-01-09T00:24:05.941Z,95906.00
2023-01-09T00:26:34.622Z,95892.00
2023-01-09T00:29:05.980Z,95904.00
2023-01-09T00:31:34.215Z,95895.00
2023-01-09T00:34:07.199Z,95881.00
2023-01-09T00:36:35.351Z,95897.00
2023-01-09T00:39:03.579Z,95889.00
2023-01-09T00:41:36.724Z,95906.00
2023-01-09T00:44:10.853Z,95892.00
2023-01-09T00:46:44.559Z,95887.00
2023-01-09T00:49:15.575Z,95890.00
2023-01-09T00:51:44.320Z,95883.00
2023-01-09T00:54:16.245Z,95883.00
2023-01-09T00:56:45.092Z,95868.00
2023-01-09T00:59:14.766Z,95856.00
2023-01-09T01:01:43.118Z,95860.00
2023-01-09T01:04:29.192Z,95862.00
2023-01-09T01:07:14.749Z,95865.00
2023-01-09T01:09:42.950Z,95864.00
2023-01-09T01:12:11.172Z,95861.00
2023-01-09T01:14:41.265Z,95861.00
2023-01-09T01:17:09.374Z,95869.00
2023-01-09T01:19:39.376Z,95853.00
2023-01-09T01:22:07.624Z,95857.00
2023-01-09T01:24:35.810Z,95870.00
2023-01-09T01:27:04.191Z,95857.00
2023-01-09T01:29:32.391Z,95871.00
2023-01-09T01:32:01.887Z,95878.00
2023-01-09T01:34:30.660Z,95868.00
2023-01-09T01:36:58.815Z,95860.00
2023-01-09T01:39:26.990Z,95857.00
2023-01-09T01:41:55.141Z,95856.00
2023-01-09T01:45:03.705Z,95862.00
2023-01-09T01:47:47.217Z,95853.00
2023-01-09T01:50:30.724Z,95864.00
2023-01-09T01:53:10.049Z,95853.00
2023-01-09T01:55:43.804Z,95848.00
2023-01-09T01:58:15.829Z,95845.00
2023-01-09T02:00:47.773Z,95836.00
2023-01-09T02:03:24.415Z,95824.00
2023-01-09T02:05:52.623Z,95821.00
2023-01-09T02:08:22.018Z,95812.00
2023-01-09T02:10:51.081Z,95817.00
2023-01-09T02:13:21.091Z,95836.00
2023-01-09T02:16:07.607Z,95835.00
2023-01-09T02:18:47.736Z,95828.00
2023-01-09T02:21:28.225Z,95816.00
2023-01-09T02:24:15.586Z,95813.00
2023-01-09T02:27:24.311Z,95820.00
2023-01-09T02:30:33.729Z,95799.00
2023-01-09T02:33:21.331Z,95785.00
2023-01-09T02:36:11.583Z,95810.00
2023-01-09T02:38:54.620Z,95805.00
2023-01-09T02:41:33.163Z,95800.00
2023-01-09T02:44:18.651Z,95800.00
2023-01-09T02:46:48.220Z,95813.00
2023-01-09T02:49:18.717Z,95802.00
2023-01-09T02:51:55.026Z,95794.00
2023-01-09T02:54:43.236Z,95783.00
2023-01-09T02:57:26.965Z,95775.00
2023-01-09T03:00:17.176Z,95778.00
2023-01-09T03:02:52.891Z,95772.00
2023-01-09T03:05:27.019Z,95783.00
2023-01-09T03:08:02.661Z,95775.00
2023-01-09T03:10:39.441Z,95777.00
2023-01-09T03:13:15.151Z,95772.00
2023-01-09T03:15:49.548Z,95770.00
2023-01-09T03:18:24.854Z,95765.00
2023-01-09T03:20:54.670Z,95771.00
2023-01-09T03:23:23.445Z,95763.00
2023-01-09T03:25:51.553Z,95768.00
2023-01-09T03:28:27.985Z,95767.00
2023-01-09T03:30:56.601Z,95759.00
2023-01-09T03:33:26.057Z,95748.00
2023-01-09T03:35:54.129Z,95763.00
2023-01-09T03:38:22.374Z,95761.00
2023-01-09T03:40:51.249Z,95766.00
2023-01-09T03:43:19.332Z,95777.00
2023-01-09T03:45:47.490Z,95770.00
2023-01-09T03:48:15.866Z,95783.00
2023-01-09T03:50:47.248Z,95778.00
2023-01-09T03:53:15.827Z,95778.00
2023-01-09T03:55:47.506Z,95788.00
2023-01-09T03:58:16.300Z,95800.00
2023-01-09T04:00:46.026Z,95807.00
2023-01-09T04:03:14.268Z,95802.00
2023-01-09T04:05:42.897Z,95788.00
2023-01-09T04:08:12.647Z,95798.00
2023-01-09T04:10:40.854Z,95790.00
2023-01-09T04:13:08.986Z,95809.00
2023-01-09T04:15:37.177Z,95802.00
2023-01-09T04:18:05.732Z,95811.00
2023-01-09T04:20:34.526Z,95803.00
2023-01-09T04:23:02.715Z,95797.00
2023-01-09T04:25:32.189Z,95817.00
2023-01-09T04:28:00.324Z,95805.00
2023-01-09T04:30:28.445Z,95809.00
2023-01-09T04:32:56.607Z,95819.00
2023-01-09T04:35:24.834Z,95810.00
2023-01-09T04:37:52.935Z,95809.00
2023-01-09T04:40:21.351Z,95814.00
2023-01-09T04:42:50.855Z,95812.00
2023-01-09T04:45:19.073Z,95807.00
2023-01-09T04:47:47.840Z,95805.00
2023-01-09T04:50:16.074Z,95817.00
2023-01-09T04:52:44.421Z,95826.00
2023-01-09T04:55:14.265Z,95839.00
2023-01-09T04:57:42.395Z,95841.00
2023-01-09T05:00:13.096Z,95851.00
2023-01-09T05:02:41.863Z,95844.00
2023-01-09T05:05:12.106Z,95852.00
2023-01-09T05:07:40.827Z,95852.00
2023-01-09T05:10:11.073Z,95866.00
2023-01-09T05:12:39.758Z,95857.00
2023-01-09T05:15:11.341Z,95855.00
2023-01-09T05:17:39.558Z,95862.00
2023-01-09T05:20:08.631Z,95868.00
2023-01-09T05:22:36.920Z,95883.00
2023-01-09T05:25:05.613Z,95876.00
2023-01-09T05:27:33.743Z,95883.00
2023-01-09T05:30:01.885Z,95878.00
2023-01-09T05:32:31.442Z,95890.00
2023-01-09T05:34:59.739Z,95889.00
2023-01-09T05:37:27.904Z,95906.00
2023-01-09T05:39:56.055Z,95900.00
2023-01-09T05:42:24.140Z,95904.00
2023-01-09T05:44:52.227Z,95908.00
2023-01-09T05:47:20.302Z,95910.00
2023-01-09T05:49:49.820Z,95907.00
2023-01-09T05:52:18.011Z,95920.00
2023-01-09T05:54:46.112Z,95916.00
2023-01-09T05:57:14.314Z,95918.00
2023-01-09T05:59:42.454Z,95915.00
2023-01-09T06:02:10.748Z,95916.00
2023-01-09T06:04:39.426Z,95924.00
2023-01-09T06:07:09.619Z,95927.00
2023-01-09T06:09:37.764Z,95941.00
2023-01-09T06:12:06.328Z,95942.00
2023-01-09T06:14:34.584Z,95943.00
2023-01-09T06:17:02.705Z,95954.00
2023-01-09T06:19:30.949Z,95946.00
2023-01-09T06:21:59.090Z,95952.00
2023-01-09T06:24:28.621Z,95956.00
2023-01-09T06:26:56.796Z,95958.00
2023-01-09T06:29:24.978Z,95970.00
2023-01-09T06:31:53.086Z,95980.00
2023-01-09T06:34:23.730Z,95982.00
2023-01-09T06:36:51.822Z,95994.00
2023-01-09T06:39:20.167Z,95992.00
2023-01-09T06:41:49.638Z,95998.00
2023-01-09T06:44:17.929Z,96002.00
2023-01-09T06:46:46.053Z,95996.00
2023-01-09T06:49:14.314Z,96001.00
2023-01-09T06:51:42.463Z,96020.00
2023-01-09T06:54:10.535Z,96014.00
2023-01-09T06:56:38.675Z,96027.00
2023-01-09T06:59:08.291Z,96024.00
2023-01-09T07:01:36.532Z,96035.00
2023-01-09T07:04:06.472Z,96040.00
2023-01-09T07:06:35.360Z,96044.00
2023-01-09T07:09:04.448Z,96039.00
2023-01-09T07:11:32.897Z,96052.00
2023-01-09T07:14:01.029Z,96042.00
2023-01-09T07:16:30.478Z,96063.00
2023-01-09T07:18:58.835Z,96061.00
2023-01-09T07:21:27.655Z,96057.00
2023-01-09T07:23:55.788Z,96076.00
2023-01-09T07:26:23.992Z,96063.00
2023-01-09T07:28:52.164Z,96059.00
2023-01-09T07:31:20.336Z,96072.00
2023-01-09T07:33:49.858Z,96069.00
2023-01-09T07:36:18.051Z,96071.00
2023-01-09T07:38:46.279Z,96078.00
2023-01-09T07:41:14.437Z,96078.00
2023-01-09T07:43:42.582Z,96091.00
2023-01-09T07:46:10.744Z,96096.00
2023-01-09T07:48:38.968Z,96091.00
2023-01-09T07:51:10.298Z,96097.00
2023-01-09T07:53:38.435Z,96096.00
2023-01-09T07:56:07.331Z,96098.00
2023-01-09T07:58:35.514Z,96099.00
2023-01-09T08:01:03.727Z,96104.00
2023-01-09T08:03:33.392Z,96106.00
2023-01-09T08:06:01.926Z,96120.00
2023-01-09T08:08:31.414Z,96119.00
2023-01-09T08:11:01.577Z,96121.00
2023-01-09T08:13:29.704Z,96125.00
2023-01-09T08:15:57.890Z,96132.00
2023-01-09T08:18:26.106Z,96130.00
2023-01-09T08:20:54.254Z,96134.00
2023-01-09T08:23:22.419Z,96136.00
2023-01-09T08:25:51.916Z,96146.00
2023-01-09T08:28:20.007Z,96140.00
2023-01-09T08:30:48.835Z,96141.00
2023-01-09T08:33:17.044Z,96164.00
2023-01-09T08:35:45.349Z,96164.00
2023-01-09T08:38:13.485Z,96174.00
2023-01-09T08:40:41.640Z,96178.00
2023-01-09T08:43:29.363Z,96180.00
2023-01-09T08:46:15.249Z,96188.00
2023-01-09T08:48:43.657Z,96183.00
2023-01-09T08:51:12.143Z,96195.00
2023-01-09T08:53:40.324Z,96192.00
2023-01-09T08:56:10.106Z,96181.00
2023-01-09T08:58:39.565Z,96194.00
2023-01-09T09:01:08.835Z,96195.00
2023-01-09T09:03:37.110Z,96203.00
2023-01-09T09:06:09.224Z,96208.00
2023-01-09T09:08:37.354Z,96228.00
2023-01-09T09:11:05.589Z,96204.00
2023-01-09T09:13:33.751Z,96219.00
2023-01-09T09:16:03.254Z,96200.00
2023-01-09T09:18:31.467Z,96218.00
2023-01-09T09:20:59.579Z,96210.00
2023-01-09T09:23:27.694Z,96199.00
2023-01-09T09:25:55.810Z,96212.00
2023-01-09T09:28:24.318Z,96212.00
2023-01-09T09:30:52.456Z,96201.00
2023-01-09T09:33:22.191Z,96192.00
2023-01-09T09:35:50.442Z,96214.00
2023-01-09T09:38:19.541Z,96206.00
2023-01-09T09:41:34.143Z,96228.00
2023-01-09T09:44:48.392Z,96233.00
2023-01-09T09:47:45.936Z,96239.00
2023-01-09T09:51:04.091Z,96240.00
2023-01-09T09:53:39.408Z,96230.00
2023-01-09T09:56:15.721Z,96232.00
2023-01-09T09:58:49.027Z,96245.00
2023-01-09T10:01:25.359Z,96240.00
2023-01-09T10:03:59.120Z,96236.00
2023-01-09T10:06:32.461Z,96223.00
2023-01-09T10:09:10.481Z,96228.00
2023-01-09T10:11:55.193Z,96235.00
2023-01-09T10:14:24.920Z,96237.00
2023-01-09T10:17:19.818Z,96246.00
2023-01-09T10:20:21.676Z,96248.00
2023-01-09T10:23:04.092Z,96249.00
2023-01-09T10:25:46.197Z,96240.00
2023-01-09T10:28:38.358Z,96243.00
2023-01-09T10:31:17.408Z,96250.00
2023-01-09T10:34:05.474Z,96245.00
2023-01-09T10:37:00.379Z,96247.00
2023-01-09T10:39:40.035Z,96222.00
2023-01-09T10:42:19.374Z,96221.00
2023-01-09T10:44:56.403Z,96223.00
2023-01-09T10:47:31.451Z,96233.00
2023-01-09T10:50:02.675Z,96239.00
2023-01-09T10:52:37.993Z,96229.00
2023-01-09T10:55:20.548Z,96245.00
2023-01-09T10:57:55.432Z,96230.00
2023-01-09T11:00:25.955Z,96233.00
2023-01-09T11:02:55.846Z,96239.00
2023-01-09T11:05:28.418Z,96233.00
2023-01-09T11:08:05.654Z,96217.00
2023-01-09T11:10:49.651Z,96221.00
2023-01-09T11:13:23.497Z,96231.00
2023-01-09T11:16:07.629Z,96239.00
2023-01-09T11:18:40.688Z,96239.00
2023-01-09T11:21:35.519Z,96230.00
2023-01-09T11:24:30.910Z,96250.00
2023-01-09T11:27:28.405Z,96233.00
2023-01-09T11:30:26.954Z,96243.00
2023-01-09T11:32:57.067Z,96249.00
2023-01-09T11:35:33.098Z,96247.00
2023-01-09T11:38:15.960Z,96238.00
2023-01-09T11:40:51.223Z,96240.00
2023-01-09T11:43:34.108Z,96241.00
2023-01-09T11:46:08.882Z,96240.00
2023-01-09T11:48:54.047Z,96235.00
2023-01-09T11:51:25.144Z,96233.00
2023-01-09T11:54:23.603Z,96230.00
2023-01-09T11:56:52.595Z,96233.00
2023-01-09T11:59:27.238Z,96228.00
2023-01-09T12:02:39.956Z,96220.00
2023-01-09T12:05:22.797Z,96210.00
2023-01-09T12:08:16.523Z,96201.00
2023-01-09T12:11:13.373Z,96215.00
2023-01-09T12:14:04.856Z,96213.00
2023-01-09T12:16:45.248Z,96219.00
2023-01-09T12:19:42.747Z,96238.00
2023-01-09T12:22:25.143Z,96222.00
2023-01-09T12:25:34.973Z,96217.00
2023-01-09T12:28:38.704Z,96220.00
2023-01-09T12:31:25.527Z,96220.00
2023-01-09T12:34:09.259Z,96223.00
2023-01-09T12:36:52.667Z,96222.00
2023-01-09T12:39:44.086Z,96223.00
2023-01-09T12:42:40.715Z,96237.00
2023-01-09T12:45:34.362Z,96241.00
2023-01-09T12:48:13.507Z,96246.00
2023-01-09T12:51:10.309Z,96245.00
2023-01-09T12:53:43.643Z,96245.00
2023-01-09T12:56:17.968Z,96249.00
2023-01-09T12:58:52.864Z,96241.00
2023-01-09T13:01:29.683Z,96247.00
2023-01-09T13:04:12.459Z,96247.00
2023-01-09T13:06:51.273Z,96260.00
2023-01-09T13:09:27.816Z,96259.00
2023-01-09T13:12:06.190Z,96264.00
2023-01-09T13:14:49.882Z,96260.00
2023-01-09T13:17:24.475Z,96265.00
2023-01-09T13:19:53.188Z,96248.00
2023-01-09T13:22:28.349Z,96254.00
2023-01-09T13:25:21.702Z,96253.00
2023-01-09T13:28:00.386Z,96245.00
2023-01-09T13:30:50.669Z,96254.00
2023-01-09T13:33:23.172Z,96238.00
2023-01-09T13:35:54.962Z,96248.00
2023-01-09T13:38:26.822Z,96234.00
2023-01-09T13:41:32.276Z,96246.00
2023-01-09T13:44:04.435Z,96247.00
2023-01-09T13:46:42.592Z,96238.00
2023-01-09T13:50:05.842Z,96237.00
2023-01-09T13:52:37.824Z,96250.00
2023-01-09T13:55:35.545Z,96242.00
2023-01-09T13:58:24.510Z,96242.00
2023-01-09T14:01:04.924Z,96243.00
2023-01-09T14:03:37.623Z,96247.00
2023-01-09T14:06:22.303Z,96254.00
2023-01-09T14:09:11.847Z,96249.00
2023-01-09T14:11:41.900Z,96266.00
2023-01-09T14:14:28.819Z,96257.00
2023-01-09T14:16:59.136Z,96259.00
2023-01-09T14:19:38.214Z,96267.00
2023-01-09T14:22:08.471Z,96275.00
2023-01-09T14:24:46.309Z,96268.00
2023-01-09T14:28:06.317Z,96282.00
2023-01-09T14:30:37.815Z,96265.00
2023-01-09T14:33:26.236Z,96272.00
2023-01-09T14:36:06.397Z,96273.00
2023-01-09T14:38:38.554Z,96266.00
2023-01-09T14:41:20.982Z,96266.00
2023-01-09T14:44:03.028Z,96284.00
2023-01-09T14:46:38.651Z,96280.00
2023-01-09T14:49:21.821Z,96268.00
2023-01-09T14:51:51.770Z,96262.00
2023-01-09T14:54:30.948Z,96288.00
2023-01-09T14:57:02.400Z,96284.00
2023-01-09T14:59:32.038Z,96291.00
2023-01-09T15:02:00.724Z,96279.00
2023-01-09T15:04:34.966Z,96280.00
2023-01-09T15:07:04.854Z,96288.00
2023-01-09T15:09:43.724Z,96303.00
2023-01-09T15:12:20.442Z,96318.00
2023-01-09T15:14:56.623Z,96333.00
2023-01-09T15:17:30.547Z,96360.00
2023-01-09T15:20:01.720Z,96383.00
2023-01-09T15:22:32.113Z,96386.00
2023-01-09T15:25:13.421Z,96382.00
2023-01-09T15:27:49.531Z,96385.00
2023-01-09T15:30:29.426Z,96358.00
2023-01-09T15:32:58.633Z,96359.00
2023-01-09T15:35:28.570Z,96375.00
2023-01-09T15:37:58.732Z,96354.00
2023-01-09T15:40:34.038Z,96344.00
2023-01-09T15:43:03.451Z,96368.00
2023-01-09T15:45:39.959Z,96372.00
2023-01-09T15:48:25.252Z,96385.00
2023-01-09T15:50:58.940Z,96389.00
2023-01-09T15:53:29.180Z,96390.00
2023-01-09T15:56:07.805Z,96398.00
2023-01-09T15:58:38.776Z,96395.00
2023-01-09T16:01:28.603Z,96385.00
2023-01-09T16:04:05.353Z,96385.00
2023-01-09T16:06:37.136Z,96406.00
2023-01-09T16:09:16.718Z,96411.00
2023-01-09T16:11:52.028Z,96411.00
2023-01-09T16:14:27.390Z,96412.00
2023-01-09T16:17:03.286Z,96418.00
2023-01-09T16:19:44.706Z,96403.00
2023-01-09T16:22:22.718Z,96414.00
2023-01-09T16:24:53.524Z,96416.00
2023-01-09T16:27:28.524Z,96400.00
2023-01-09T16:30:00.780Z,96409.00
2023-01-09T16:32:33.898Z,96416.00
2023-01-09T16:35:06.652Z,96419.00
2023-01-09T16:37:37.372Z,96426.00
2023-01-09T16:40:32.012Z,96427.00
2023-01-09T16:43:01.449Z,96429.00
2023-01-09T16:45:34.385Z,96422.00
2023-01-09T16:48:12.633Z,96445.00
2023-01-09T16:50:41.265Z,96436.00
2023-01-09T16:53:18.513Z,96443.00
2023-01-09T16:55:47.459Z,96442.00
2023-01-09T16:58:18.917Z,96439.00
2023-01-09T17:00:47.898Z,96435.00
2023-01-09T17:03:20.069Z,96455.00
2023-01-09T17:05:51.739Z,96455.00
2023-01-09T17:08:25.760Z,96452.00
2023-01-09T17:10:56.260Z,96459.00
2023-01-09T17:13:25.217Z,96443.00
2023-01-09T17:15:55.082Z,96450.00
2023-01-09T17:18:27.669Z,96458.00
2023-01-09T17:20:58.645Z,96462.00
2023-01-09T17:23:26.769Z,96478.00
2023-01-09T17:26:16.789Z,96473.00
2023-01-09T17:28:51.239Z,96465.00
2023-01-09T17:31:20.213Z,96463.00
2023-01-09T17:33:50.137Z,96467.00
2023-01-09T17:36:29.352Z,96468.00
2023-01-09T17:38:57.525Z,96470.00
2023-01-09T17:41:27.961Z,96472.00
2023-01-09T17:43:57.275Z,96483.00
2023-01-09T17:46:30.268Z,96493.00
2023-01-09T17:49:00.835Z,96479.00
2023-01-09T17:51:29.618Z,96478.00
2023-01-09T17:53:58.626Z,96476.00
2023-01-09T17:56:30.150Z,96480.00
2023-01-09T17:58:58.372Z,96486.00
2023-01-09T18:01:26.716Z,96486.00
2023-01-09T18:03:54.952Z,96494.00
2023-01-09T18:06:26.999Z,96492.00
2023-01-09T18:08:57.960Z,96499.00
2023-01-09T18:11:26.806Z,96504.00
2023-01-09T18:13:55.028Z,96508.00
2023-01-09T18:16:26.428Z,96512.00
2023-01-09T18:18:57.654Z,96515.00
2023-01-09T18:21:30.281Z,96529.00
2023-01-09T18:24:01.365Z,96528.00
2023-01-09T18:26:29.580Z,96542.00
2023-01-09T18:29:00.435Z,96544.00
2023-01-09T18:31:30.323Z,96541.00
2023-01-09T18:34:02.383Z,96564.00
2023-01-09T18:36:33.746Z,96560.00
2023-01-09T18:39:05.507Z,96573.00
2023-01-09T18:41:34.028Z,96575.00
2023-01-09T18:44:03.141Z,96581.00
2023-01-09T18:46:32.382Z,96589.00
2023-01-09T18:49:03.739Z,96586.00
2023-01-09T18:51:36.320Z,96584.00
2023-01-09T18:54:07.958Z,96581.00
2023-01-09T18:56:36.744Z,96570.00
2023-01-09T18:59:04.979Z,96585.00
2023-01-09T19:01:33.811Z,96596.00
2023-01-09T19:04:02.155Z,96596.00
2023-01-09T19:06:32.354Z,96610.00
2023-01-09T19:09:00.901Z,96615.00
2023-01-09T19:11:29.455Z,96614.00
2023-01-09T19:13:57.866Z,96608.00
2023-01-09T19:16:26.088Z,96622.00
2023-01-09T19:18:54.314Z,96620.00
2023-01-09T19:21:26.685Z,96638.00
2023-01-09T19:23:58.657Z,96628.00
2023-01-09T19:26:30.838Z,96622.00
2023-01-09T19:28:59.181Z,96620.00
2023-01-09T19:31:29.801Z,96620.00
2023-01-09T19:33:59.117Z,96625.00
2023-01-09T19:36:29.061Z,96628.00
2023-01-09T19:38:59.909Z,96630.00
2023-01-09T19:41:29.588Z,96630.00
2023-01-09T19:43:57.851Z,96633.00
2023-01-09T19:46:29.505Z,96623.00
2023-01-09T19:48:58.915Z,96636.00
2023-01-09T19:51:27.112Z,96645.00
2023-01-09T19:56:35.031Z,96658.00
2023-01-09T19:59:05.692Z,96650.00
2023-01-09T20:01:37.142Z,96661.00
2023-01-09T20:04:13.382Z,96677.00
2023-01-09T20:06:43.820Z,96687.00
2023-01-09T20:09:15.802Z,96668.00
2023-01-09T20:11:44.763Z,96683.00
2023-01-09T20:14:14.492Z,96678.00
2023-01-09T20:16:44.282Z,96690.00
2023-01-09T20:19:14.778Z,96681.00
2023-01-09T20:21:46.103Z,96685.00
2023-01-09T20:24:17.761Z,96691.00
2023-01-09T20:26:50.032Z,96682.00
2023-01-09T20:29:18.298Z,96686.00
2023-01-09T20:31:46.579Z,96694.00
2023-01-09T20:34:16.256Z,96681.00
2023-01-09T20:36:44.758Z,96681.00
2023-01-09T20:39:14.982Z,96691.00
2023-01-09T20:41:43.197Z,96687.00
2023-01-09T20:44:15.603Z,96694.00
2023-01-09T20:46:47.809Z,96690.00
2023-01-09T20:49:19.091Z,96697.00
2023-01-09T20:51:50.348Z,96703.00
2023-01-09T20:54:22.476Z,96707.00
2023-01-09T20:56:51.137Z,96706.00
2023-01-09T20:59:21.905Z,96721.00
2023-01-09T21:01:50.610Z,96711.00
2023-01-09T21:04:19.065Z,96718.00
2023-01-09T21:06:49.746Z,96717.00
2023-01-09T21:09:20.252Z,96724.00
2023-01-09T21:11:51.608Z,96729.00
2023-01-09T21:14:20.038Z,96733.00
2023-01-09T21:16:54.500Z,96740.00
2023-01-09T21:19:23.847Z,96757.00
2023-01-09T21:21:53.397Z,96768.00
2023-01-09T21:24:23.236Z,96767.00
2023-01-09T21:26:51.387Z,96751.00
2023-01-09T21:29:19.603Z,96758.00
2023-01-09T21:31:47.852Z,96761.00
2023-01-09T21:34:19.996Z,96768.00
2023-01-09T21:36:48.820Z,96773.00
2023-01-09T21:39:18.287Z,96775.00
2023-01-09T21:42:13.593Z,96780.00
2023-01-09T21:44:59.498Z,96778.00
2023-01-09T21:47:27.593Z,96785.00
2023-01-09T21:49:55.760Z,96774.00
2023-01-09T21:52:25.577Z,96797.00
2023-01-09T21:54:53.727Z,96798.00
2023-01-09T21:57:23.235Z,96793.00
2023-01-09T21:59:51.487Z,96801.00
2023-01-09T22:02:19.628Z,96817.00
2023-01-09T22:04:48.944Z,96817.00
2023-01-09T22:07:17.399Z,96826.00
2023-01-09T22:09:45.856Z,96840.00
2023-01-09T22:12:14.306Z,96832.00
2023-01-09T22:14:44.079Z,96849.00
2023-01-09T22:17:12.207Z,96840.00
2023-01-09T22:19:40.438Z,96844.00
2023-01-09T22:22:08.669Z,96871.00
2023-01-09T22:24:36.928Z,96859.00
2023-01-09T22:27:05.503Z,96852.00
2023-01-09T22:29:34.065Z,96876.00
2023-01-09T22:32:03.983Z,96870.00
2023-01-09T22:34:32.281Z,96872.00
2023-01-09T22:37:00.530Z,96895.00
2023-01-09T22:39:28.747Z,96892.00
2023-01-09T22:41:59.011Z,96881.00
2023-01-09T22:44:29.591Z,96886.00
2023-01-09T22:46:58.344Z,96896.00
2023-01-09T22:49:30.194Z,96895.00
2023-01-09T22:52:01.501Z,96911.00
2023-01-09T22:54:29.670Z,96920.00
2023-01-09T22:56:57.817Z,96914.00
2023-01-09T22:59:27.248Z,96918.00
2023-01-09T23:01:56.838Z,96914.00
2023-01-09T23:04:25.017Z,96918.00
2023-01-09T23:06:54.921Z,96913.00
2023-01-09T23:09:23.154Z,96924.00
2023-01-09T23:12:03.569Z,96940.00
2023-01-09T23:14:34.029Z,96939.00
2023-01-09T23:17:02.549Z,96937.00
2023-01-09T23:19:32.684Z,96937.00
2023-01-09T23:22:03.624Z,96953.00
2023-01-09T23:24:32.477Z,96935.00
2023-01-09T23:27:00.896Z,96940.00
2023-01-09T23:29:29.835Z,96948.00
2023-01-09T23:31:58.179Z,96945.00
2023-01-09T23:34:27.550Z,96963.00
2023-01-09T23:36:57.961Z,96961.00
2023-01-09T23:39:27.474Z,96961.00
2023-01-09T23:42:13.237Z,96965.00
2023-01-09T23:44:41.356Z,96971.00
2023-01-09T23:47:09.522Z,96963.00
2023-01-09T23:49:38.695Z,96966.00
2023-01-09T23:52:08.531Z,96959.00
2023-01-09T23:54:38.167Z,96980.00
2023-01-09T23:57:06.527Z,96990.00
2023-01-09T23:59:34.871Z,96984.00
